Terminal Aerodrome Forecast
Issued by NWS Cleveland, OH

Home | Current Version | Previous Version | Graphics & Text | Print | Product List | Glossary On
Versions: 1 2 3 4 5 6 7 8 9 10 11 12 13 14 15 16 17 18 19 20 21
208
FTUS41 KCLE 212328
TAFERI
TAF
KERI 212328Z 2200/2224 18007KT P6SM OVC250
     FM220300 16005KT P6SM OVC100
     FM220800 16006KT 6SM BR OVC035
     FM221000 15004KT 3SM BR OVC025
     FM221600 08008KT P6SM BKN035=

USA.gov is the U.S. government's official web portal to all federal, state and local government web resources and services.